sensor_id;sensor_type;location;lat;lon;timestamp;pressure;altitude;pressure_sealevel;temperature;humidity
16431;BME280;8325;49.284;7.238;2023-08-17T04:03:21;98814.84;;;17.42;100.00
16431;BME280;8325;49.284;7.238;2023-08-17T04:07:33;98818.94;;;17.38;100.00
16431;BME280;8325;49.284;7.238;2023-08-17T04:11:45;98820.13;;;17.42;100.00
16431;BME280;8325;49.284;7.238;2023-08-17T04:15:57;98816.47;;;17.43;100.00
16431;BME280;8325;49.284;7.238;2023-08-17T04:20:09;98820.13;;;17.42;100.00
16431;BME280;8325;49.284;7.238;2023-08-17T04:24:21;98836.19;;;17.40;100.00
16431;BME280;8325;49.284;7.238;2023-08-17T04:28:33;98827.66;;;17.38;100.00
16431;BME280;8325;49.284;7.238;2023-08-17T04:32:44;98833.59;;;17.34;100.00
16431;BME280;8325;49.284;7.238;2023-08-17T04:37:02;98836.47;;;17.25;100.00
16431;BME280;8325;49.284;7.238;2023-08-17T04:41:15;98832.84;;;17.13;100.00
16431;BME280;8325;49.284;7.238;2023-08-17T04:45:28;98834.28;;;17.16;100.00
16431;BME280;8325;49.284;7.238;2023-08-17T04:49:40;98841.34;;;17.22;100.00
16431;BME280;8325;49.284;7.238;2023-08-17T04:53:51;98849.47;;;17.20;100.00
16431;BME280;8325;49.284;7.238;2023-08-17T04:58:04;98852.28;;;17.25;100.00
16431;BME280;8325;49.284;7.238;2023-08-17T05:02:16;98842.94;;;17.30;100.00
16431;BME280;8325;49.284;7.238;2023-08-17T05:06:28;98841.09;;;17.30;100.00
16431;BME280;8325;49.284;7.238;2023-08-17T05:10:40;98847.38;;;17.36;100.00
16431;BME280;8325;49.284;7.238;2023-08-17T05:14:52;98845.34;;;17.38;100.00
16431;BME280;8325;49.284;7.238;2023-08-17T05:19:04;98846.16;;;17.38;100.00
16431;BME280;8325;49.284;7.238;2023-08-17T05:23:16;98856.09;;;17.43;100.00
16431;BME280;8325;49.284;7.238;2023-08-17T05:27:29;98854.63;;;17.47;100.00
16431;BME280;8325;49.284;7.238;2023-08-17T05:31:41;98869.84;;;17.52;100.00
16431;BME280;8325;49.284;7.238;2023-08-17T05:35:54;98872.72;;;17.43;100.00
16431;BME280;8325;49.284;7.238;2023-08-17T05:40:06;98873.53;;;17.44;100.00
16431;BME280;8325;49.284;7.238;2023-08-17T05:44:20;98876.38;;;17.42;100.00
16431;BME280;8325;49.284;7.238;2023-08-17T05:48:32;98872.56;;;17.32;100.00
16431;BME280;8325;49.284;7.238;2023-08-17T05:52:44;98866.91;;;17.28;100.00
16431;BME280;8325;49.284;7.238;2023-08-17T05:56:55;98871.31;;;17.41;100.00
16431;BME280;8325;49.284;7.238;2023-08-17T06:01:08;98869.72;;;17.40;100.00
16431;BME280;8325;49.284;7.238;2023-08-17T06:05:23;98875.41;;;17.30;100.00
16431;BME280;8325;49.284;7.238;2023-08-17T06:09:36;98873.59;;;17.31;100.00
16431;BME280;8325;49.284;7.238;2023-08-17T06:13:48;98877.03;;;17.38;100.00
16431;BME280;8325;49.284;7.238;2023-08-17T06:17:59;98876.59;;;17.41;100.00
16431;BME280;8325;49.284;7.238;2023-08-17T06:22:11;98878.81;;;17.44;100.00
16431;BME280;8325;49.284;7.238;2023-08-17T06:26:23;98879.44;;;17.46;100.00
16431;BME280;8325;49.284;7.238;2023-08-17T06:30:35;98876.94;;;17.51;100.00
16431;BME280;8325;49.284;7.238;2023-08-17T06:34:47;98884.53;;;17.41;100.00
16431;BME280;8325;49.284;7.238;2023-08-17T06:38:58;98877.03;;;17.38;100.00
16431;BME280;8325;49.284;7.238;2023-08-17T06:43:10;98879.22;;;17.47;100.00
16431;BME280;8325;49.284;7.238;2023-08-17T06:47:22;98890.72;;;17.60;100.00
16431;BME280;8325;49.284;7.238;2023-08-17T06:51:33;98890.44;;;17.75;100.00
16431;BME280;8325;49.284;7.238;2023-08-17T06:55:45;98892.69;;;17.78;100.00
16431;BME280;8325;49.284;7.238;2023-08-17T06:59:57;98900.34;;;17.92;100.00
16431;BME280;8325;49.284;7.238;2023-08-17T07:04:10;98902.59;;;17.89;100.00
16431;BME280;8325;49.284;7.238;2023-08-17T07:08:21;98897.84;;;18.04;100.00
16431;BME280;8325;49.284;7.238;2023-08-17T07:12:33;98902.50;;;18.02;100.00
16431;BME280;8325;49.284;7.238;2023-08-17T07:16:45;98901.88;;;18.07;100.00
16431;BME280;8325;49.284;7.238;2023-08-17T07:20:56;98899.53;;;18.24;100.00
16431;BME280;8325;49.284;7.238;2023-08-17T07:25:09;98892.81;;;18.21;100.00
16431;BME280;8325;49.284;7.238;2023-08-17T07:29:21;98904.56;;;18.32;100.00
16431;BME280;8325;49.284;7.238;2023-08-17T07:33:33;98889.88;;;18.36;100.00
16431;BME280;8325;49.284;7.238;2023-08-17T07:37:44;98891.91;;;18.34;100.00
16431;BME280;8325;49.284;7.238;2023-08-17T07:42:10;98896.66;;;18.50;100.00
16431;BME280;8325;49.284;7.238;2023-08-17T07:46:21;98894.78;;;18.57;100.00
16431;BME280;8325;49.284;7.238;2023-08-17T07:50:33;98888.06;;;18.80;100.00
16431;BME280;8325;49.284;7.238;2023-08-17T07:54:45;98893.19;;;18.75;100.00
16431;BME280;8325;49.284;7.238;2023-08-17T07:58:57;98894.78;;;18.82;100.00
16431;BME280;8325;49.284;7.238;2023-08-17T08:03:09;98891.78;;;18.97;100.00
16431;BME280;8325;49.284;7.238;2023-08-17T08:07:21;98898.06;;;18.78;100.00
16431;BME280;8325;49.284;7.238;2023-08-17T08:11:32;98892.88;;;18.64;100.00
16431;BME280;8325;49.284;7.238;2023-08-17T08:15:44;98883.81;;;18.79;100.00
16431;BME280;8325;49.284;7.238;2023-08-17T08:19:55;98888.50;;;18.77;100.00
16431;BME280;8325;49.284;7.238;2023-08-17T08:24:07;98885.53;;;18.92;100.00
16431;BME280;8325;49.284;7.238;2023-08-17T08:28:28;98883.53;;;19.05;100.00
16431;BME280;8325;49.284;7.238;2023-08-17T08:32:40;98888.88;;;19.36;100.00
16431;BME280;8325;49.284;7.238;2023-08-17T08:36:51;98893.66;;;19.45;100.00
16431;BME280;8325;49.284;7.238;2023-08-17T08:41:04;98898.22;;;19.57;100.00
16431;BME280;8325;49.284;7.238;2023-08-17T08:45:16;98894.41;;;19.52;100.00
16431;BME280;8325;49.284;7.238;2023-08-17T08:49:28;98895.41;;;19.70;100.00
16431;BME280;8325;49.284;7.238;2023-08-17T08:53:45;98885.13;;;19.43;100.00
16431;BME280;8325;49.284;7.238;2023-08-17T08:57:56;98886.75;;;19.26;100.00
16431;BME280;8325;49.284;7.238;2023-08-17T09:02:14;98882.06;;;19.28;100.00
16431;BME280;8325;49.284;7.238;2023-08-17T09:06:27;98882.00;;;19.83;100.00
16431;BME280;8325;49.284;7.238;2023-08-17T09:10:39;98883.03;;;20.36;100.00
16431;BME280;8325;49.284;7.238;2023-08-17T09:14:50;98861.69;;;20.78;100.00
16431;BME280;8325;49.284;7.238;2023-08-17T09:19:07;98869.56;;;20.84;100.00
16431;BME280;8325;49.284;7.238;2023-08-17T09:23:21;98876.38;;;21.32;100.00
16431;BME280;8325;49.284;7.238;2023-08-17T09:27:33;98875.59;;;21.60;100.00
16431;BME280;8325;49.284;7.238;2023-08-17T09:31:45;98876.25;;;21.39;100.00
16431;BME280;8325;49.284;7.238;2023-08-17T09:35:59;98878.41;;;21.54;100.00
16431;BME280;8325;49.284;7.238;2023-08-17T09:40:11;98890.06;;;21.65;100.00
16431;BME280;8325;49.284;7.238;2023-08-17T09:44:22;98880.31;;;21.42;100.00
16431;BME280;8325;49.284;7.238;2023-08-17T09:48:34;98878.59;;;21.64;100.00
16431;BME280;8325;49.284;7.238;2023-08-17T09:52:46;98873.34;;;21.81;100.00
16431;BME280;8325;49.284;7.238;2023-08-17T09:57:01;98879.25;;;21.43;100.00
16431;BME280;8325;49.284;7.238;2023-08-17T10:01:14;98873.00;;;21.77;100.00
16431;BME280;8325;49.284;7.238;2023-08-17T10:05:28;98878.34;;;21.94;100.00
16431;BME280;8325;49.284;7.238;2023-08-17T10:09:43;98894.59;;;22.60;100.00
16431;BME280;8325;49.284;7.238;2023-08-17T10:14:02;98905.63;;;22.86;100.00
16431;BME280;8325;49.284;7.238;2023-08-17T10:19:05;98915.00;;;22.71;100.00
16431;BME280;8325;49.284;7.238;2023-08-17T10:23:18;98923.50;;;22.90;100.00
16431;BME280;8325;49.284;7.238;2023-08-17T10:27:32;98930.66;;;22.85;100.00
16431;BME280;8325;49.284;7.238;2023-08-17T10:31:44;98924.44;;;22.62;100.00
16431;BME280;8325;49.284;7.238;2023-08-17T10:36:00;98942.50;;;22.43;100.00
16431;BME280;8325;49.284;7.238;2023-08-17T10:40:12;98931.94;;;22.32;100.00
16431;BME280;8325;49.284;7.238;2023-08-17T10:44:46;98881.72;;;21.90;100.00
16431;BME280;8325;49.284;7.238;2023-08-17T10:49:03;98860.72;;;21.59;100.00
16431;BME280;8325;49.284;7.238;2023-08-17T10:53:19;98863.88;;;21.45;100.00
16431;BME280;8325;49.284;7.238;2023-08-17T10:57:33;98864.84;;;21.38;100.00
16431;BME280;8325;49.284;7.238;2023-08-17T11:01:45;98869.59;;;21.25;100.00
16431;BME280;8325;49.284;7.238;2023-08-17T11:05:57;98860.25;;;21.22;100.00
16431;BME280;8325;49.284;7.238;2023-08-17T11:14:33;98862.13;;;21.10;100.00
16431;BME280;8325;49.284;7.238;2023-08-17T11:18:46;98841.63;;;21.34;100.00
16431;BME280;8325;49.284;7.238;2023-08-17T11:23:00;98851.19;;;21.47;100.00
16431;BME280;8325;49.284;7.238;2023-08-17T11:27:12;98866.19;;;21.53;100.00
16431;BME280;8325;49.284;7.238;2023-08-17T11:31:25;98882.44;;;21.56;100.00
16431;BME280;8325;49.284;7.238;2023-08-17T11:35:37;98893.81;;;21.80;100.00
16431;BME280;8325;49.284;7.238;2023-08-17T11:39:49;98896.72;;;21.96;100.00
16431;BME280;8325;49.284;7.238;2023-08-17T11:44:01;98885.34;;;21.83;100.00
16431;BME280;8325;49.284;7.238;2023-08-17T11:48:14;98886.16;;;21.84;100.00
16431;BME280;8325;49.284;7.238;2023-08-17T11:52:29;98888.81;;;22.01;100.00
16431;BME280;8325;49.284;7.238;2023-08-17T11:56:40;98881.25;;;21.93;100.00
16431;BME280;8325;49.284;7.238;2023-08-17T12:00:53;98898.84;;;22.11;100.00
16431;BME280;8325;49.284;7.238;2023-08-17T12:05:06;98879.63;;;21.92;100.00
16431;BME280;8325;49.284;7.238;2023-08-17T12:09:18;98877.16;;;22.02;100.00
16431;BME280;8325;49.284;7.238;2023-08-17T12:13:34;98865.63;;;22.13;100.00
16431;BME280;8325;49.284;7.238;2023-08-17T12:17:46;98852.81;;;21.93;100.00
16431;BME280;8325;49.284;7.238;2023-08-17T12:21:58;98846.97;;;21.79;100.00
16431;BME280;8325;49.284;7.238;2023-08-17T12:26:10;98829.72;;;21.82;100.00
16431;BME280;8325;49.284;7.238;2023-08-17T12:30:30;98826.69;;;21.90;100.00
16431;BME280;8325;49.284;7.238;2023-08-17T12:34:47;98824.44;;;21.99;100.00
16431;BME280;8325;49.284;7.238;2023-08-17T12:38:59;98805.28;;;22.31;100.00
16431;BME280;8325;49.284;7.238;2023-08-17T12:43:14;98795.03;;;22.39;100.00
16431;BME280;8325;49.284;7.238;2023-08-17T12:47:26;98791.31;;;23.01;100.00
16431;BME280;8325;49.284;7.238;2023-08-17T12:51:38;98779.56;;;22.97;100.00
16431;BME280;8325;49.284;7.238;2023-08-17T12:55:56;98779.06;;;23.00;100.00
16431;BME280;8325;49.284;7.238;2023-08-17T13:00:08;98787.72;;;23.12;100.00
16431;BME280;8325;49.284;7.238;2023-08-17T13:04:20;98789.19;;;23.25;100.00
16431;BME280;8325;49.284;7.238;2023-08-17T13:08:32;98793.97;;;23.50;100.00
16431;BME280;8325;49.284;7.238;2023-08-17T13:12:43;98789.22;;;23.84;100.00
16431;BME280;8325;49.284;7.238;2023-08-17T13:16:55;98784.22;;;23.93;100.00
16431;BME280;8325;49.284;7.238;2023-08-17T13:21:07;98777.28;;;24.29;100.00
16431;BME280;8325;49.284;7.238;2023-08-17T13:25:21;98770.22;;;24.55;100.00
16431;BME280;8325;49.284;7.238;2023-08-17T13:29:32;98766.00;;;24.65;100.00
16431;BME280;8325;49.284;7.238;2023-08-17T13:33:44;98757.22;;;24.74;100.00
16431;BME280;8325;49.284;7.238;2023-08-17T13:37:56;98758.72;;;24.45;100.00
16431;BME280;8325;49.284;7.238;2023-08-17T13:42:09;98765.63;;;24.03;100.00
16431;BME280;8325;49.284;7.238;2023-08-17T13:46:20;98750.88;;;24.38;100.00
16431;BME280;8325;49.284;7.238;2023-08-17T13:50:32;98756.97;;;24.76;100.00
16431;BME280;8325;49.284;7.238;2023-08-17T13:54:44;98750.75;;;24.55;100.00
16431;BME280;8325;49.284;7.238;2023-08-17T13:58:57;98746.50;;;24.64;100.00
16431;BME280;8325;49.284;7.238;2023-08-17T14:03:09;98741.78;;;24.34;100.00
16431;BME280;8325;49.284;7.238;2023-08-17T14:07:21;98738.22;;;24.61;100.00
16431;BME280;8325;49.284;7.238;2023-08-17T14:11:33;98726.03;;;24.90;100.00
16431;BME280;8325;49.284;7.238;2023-08-17T14:15:44;98725.78;;;25.02;100.00
16431;BME280;8325;49.284;7.238;2023-08-17T14:19:56;98710.22;;;24.73;100.00
16431;BME280;8325;49.284;7.238;2023-08-17T14:24:08;98705.13;;;24.67;100.00
16431;BME280;8325;49.284;7.238;2023-08-17T14:28:19;98702.78;;;24.96;100.00
16431;BME280;8325;49.284;7.238;2023-08-17T14:32:31;98700.44;;;25.10;100.00
16431;BME280;8325;49.284;7.238;2023-08-17T14:36:45;98691.66;;;25.19;100.00
16431;BME280;8325;49.284;7.238;2023-08-17T14:40:58;98692.47;;;25.40;100.00
16431;BME280;8325;49.284;7.238;2023-08-17T14:45:11;98698.06;;;25.64;99.09
16431;BME280;8325;49.284;7.238;2023-08-17T14:49:22;98692.44;;;25.91;97.61
16431;BME280;8325;49.284;7.238;2023-08-17T14:53:37;98695.13;;;25.76;95.84
16431;BME280;8325;49.284;7.238;2023-08-17T14:57:50;98696.75;;;25.57;95.32
16431;BME280;8325;49.284;7.238;2023-08-17T15:02:02;98687.38;;;25.59;95.15
16431;BME280;8325;49.284;7.238;2023-08-17T15:06:13;98688.97;;;25.45;92.23
16431;BME280;8325;49.284;7.238;2023-08-17T15:10:43;98689.78;;;25.71;91.15
16431;BME280;8325;49.284;7.238;2023-08-17T15:14:55;98677.47;;;25.85;92.06
16431;BME280;8325;49.284;7.238;2023-08-17T15:19:06;98670.50;;;25.94;89.01
16431;BME280;8325;49.284;7.238;2023-08-17T15:23:18;98675.34;;;25.92;86.07
16431;BME280;8325;49.284;7.238;2023-08-17T15:27:30;98664.63;;;25.87;88.92
16431;BME280;8325;49.284;7.238;2023-08-17T15:31:41;98673.75;;;25.86;89.01
16431;BME280;8325;49.284;7.238;2023-08-17T15:35:53;98665.13;;;26.00;89.55
16431;BME280;8325;49.284;7.238;2023-08-17T15:40:06;98666.72;;;26.06;91.08
16431;BME280;8325;49.284;7.238;2023-08-17T15:44:18;98663.00;;;25.97;90.41
16431;BME280;8325;49.284;7.238;2023-08-17T15:48:29;98659.53;;;25.96;91.57
16431;BME280;8325;49.284;7.238;2023-08-17T15:52:42;98665.41;;;26.03;90.18
16431;BME280;8325;49.284;7.238;2023-08-17T15:56:54;98663.50;;;26.04;88.26
16431;BME280;8325;49.284;7.238;2023-08-17T16:01:05;98657.69;;;25.86;89.30
16431;BME280;8325;49.284;7.238;2023-08-17T16:05:17;98669.47;;;25.60;88.19
16431;BME280;8325;49.284;7.238;2023-08-17T16:09:28;98663.56;;;25.78;86.48
16431;BME280;8325;49.284;7.238;2023-08-17T16:13:42;98667.31;;;25.72;88.10
16431;BME280;8325;49.284;7.238;2023-08-17T16:17:57;98664.63;;;25.87;88.80
16431;BME280;8325;49.284;7.238;2023-08-17T16:22:12;98660.88;;;25.99;87.90
16431;BME280;8325;49.284;7.238;2023-08-17T16:26:27;98655.78;;;25.97;87.82
16431;BME280;8325;49.284;7.238;2023-08-17T16:30:45;98648.56;;;25.92;85.15
16431;BME280;8325;49.284;7.238;2023-08-17T16:34:56;98666.22;;;25.93;84.49
16431;BME280;8325;49.284;7.238;2023-08-17T16:39:09;98650.69;;;26.01;84.27
16431;BME280;8325;49.284;7.238;2023-08-17T16:43:21;98642.91;;;26.09;85.87
16431;BME280;8325;49.284;7.238;2023-08-17T16:47:33;98640.47;;;26.18;84.31
16431;BME280;8325;49.284;7.238;2023-08-17T16:51:45;98641.81;;;26.10;86.03
16431;BME280;8325;49.284;7.238;2023-08-17T16:55:57;98637.81;;;26.08;85.47
16431;BME280;8325;49.284;7.238;2023-08-17T17:00:10;98633.56;;;25.97;85.70
16431;BME280;8325;49.284;7.238;2023-08-17T17:04:22;98643.47;;;25.96;87.77
16431;BME280;8325;49.284;7.238;2023-08-17T17:08:34;98640.81;;;25.86;90.43
16431;BME280;8325;49.284;7.238;2023-08-17T17:12:46;98652.06;;;25.72;91.81
16431;BME280;8325;49.284;7.238;2023-08-17T17:16:57;98662.22;;;25.70;90.82
16431;BME280;8325;49.284;7.238;2023-08-17T17:21:11;98658.47;;;25.66;91.30
16431;BME280;8325;49.284;7.238;2023-08-17T17:25:22;98654.75;;;25.52;93.09
16431;BME280;8325;49.284;7.238;2023-08-17T17:29:34;98652.63;;;25.29;90.31
16431;BME280;8325;49.284;7.238;2023-08-17T17:33:46;98646.19;;;25.24;90.83
16431;BME280;8325;49.284;7.238;2023-08-17T17:37:58;98656.09;;;25.14;90.67
16431;BME280;8325;49.284;7.238;2023-08-17T17:42:12;98647.78;;;25.05;91.37
16431;BME280;8325;49.284;7.238;2023-08-17T17:46:24;98659.78;;;24.92;93.01
16431;BME280;8325;49.284;7.238;2023-08-17T17:50:35;98660.31;;;24.89;95.16
16431;BME280;8325;49.284;7.238;2023-08-17T17:54:47;98652.00;;;24.75;97.05
16431;BME280;8325;49.284;7.238;2023-08-17T17:58:59;98652.00;;;24.70;98.42
16431;BME280;8325;49.284;7.238;2023-08-17T18:03:11;98655.91;;;24.42;100.00
16431;BME280;8325;49.284;7.238;2023-08-17T18:07:25;98657.50;;;24.43;100.00
16431;BME280;8325;49.284;7.238;2023-08-17T18:11:37;98657.97;;;24.30;100.00
16431;BME280;8325;49.284;7.238;2023-08-17T18:15:48;98668.06;;;24.23;100.00
16431;BME280;8325;49.284;7.238;2023-08-17T18:20:00;98669.84;;;24.07;100.00
16431;BME280;8325;49.284;7.238;2023-08-17T18:24:11;98673.84;;;23.99;100.00
16431;BME280;8325;49.284;7.238;2023-08-17T18:28:23;98679.09;;;23.89;100.00
16431;BME280;8325;49.284;7.238;2023-08-17T18:32:36;98676.03;;;23.70;100.00
16431;BME280;8325;49.284;7.238;2023-08-17T18:36:49;98681.56;;;23.63;100.00
16431;BME280;8325;49.284;7.238;2023-08-17T18:41:07;98688.41;;;23.54;100.00
16431;BME280;8325;49.284;7.238;2023-08-17T18:45:19;98693.69;;;23.44;100.00
16431;BME280;8325;49.284;7.238;2023-08-17T18:49:31;98693.91;;;23.37;100.00
16431;BME280;8325;49.284;7.238;2023-08-17T18:53:44;98685.59;;;23.34;100.00
16431;BME280;8325;49.284;7.238;2023-08-17T18:57:55;98693.59;;;23.34;100.00
16431;BME280;8325;49.284;7.238;2023-08-17T19:02:07;98694.63;;;23.28;100.00
16431;BME280;8325;49.284;7.238;2023-08-17T19:06:19;98707.88;;;23.23;100.00
16431;BME280;8325;49.284;7.238;2023-08-17T19:10:30;98697.44;;;23.16;100.00
16431;BME280;8325;49.284;7.238;2023-08-17T19:14:42;98702.97;;;23.09;100.00
16431;BME280;8325;49.284;7.238;2023-08-17T19:18:54;98701.53;;;23.02;100.00
16431;BME280;8325;49.284;7.238;2023-08-17T19:23:05;98704.97;;;22.97;100.00
16431;BME280;8325;49.284;7.238;2023-08-17T19:27:18;98704.41;;;22.95;100.00
16431;BME280;8325;49.284;7.238;2023-08-17T19:31:29;98702.22;;;22.92;100.00
16431;BME280;8325;49.284;7.238;2023-08-17T19:35:41;98712.78;;;22.82;100.00
16431;BME280;8325;49.284;7.238;2023-08-17T19:39:56;98715.88;;;22.73;100.00
16431;BME280;8325;49.284;7.238;2023-08-17T19:44:08;98706.34;;;22.56;100.00
16431;BME280;8325;49.284;7.238;2023-08-17T19:48:19;98704.66;;;22.49;100.00
16431;BME280;8325;49.284;7.238;2023-08-17T19:52:31;98713.81;;;22.37;100.00
16431;BME280;8325;49.284;7.238;2023-08-17T19:56:42;98718.19;;;22.26;100.00
16431;BME280;8325;49.284;7.238;2023-08-17T20:00:54;98713.31;;;22.18;100.00
16431;BME280;8325;49.284;7.238;2023-08-17T20:05:06;98713.16;;;22.08;100.00
16431;BME280;8325;49.284;7.238;2023-08-17T20:09:17;98710.78;;;22.11;100.00
16431;BME280;8325;49.284;7.238;2023-08-17T20:13:29;98708.63;;;22.08;100.00
16431;BME280;8325;49.284;7.238;2023-08-17T20:17:41;98710.41;;;22.02;100.00
16431;BME280;8325;49.284;7.238;2023-08-17T20:21:52;98709.28;;;21.98;100.00
16431;BME280;8325;49.284;7.238;2023-08-17T20:26:04;98711.38;;;21.96;100.00
16431;BME280;8325;49.284;7.238;2023-08-17T20:30:16;98716.38;;;21.93;100.00
16431;BME280;8325;49.284;7.238;2023-08-17T20:34:28;98715.19;;;21.83;100.00
16431;BME280;8325;49.284;7.238;2023-08-17T20:38:41;98727.66;;;21.66;100.00
16431;BME280;8325;49.284;7.238;2023-08-17T20:42:53;98731.19;;;21.55;100.00
16431;BME280;8325;49.284;7.238;2023-08-17T20:47:05;98728.28;;;21.40;100.00
16431;BME280;8325;49.284;7.238;2023-08-17T20:51:20;98732.47;;;21.35;100.00
16431;BME280;8325;49.284;7.238;2023-08-17T20:55:39;98732.91;;;21.32;100.00
16431;BME280;8325;49.284;7.238;2023-08-17T20:59:51;98731.31;;;21.31;100.00
16431;BME280;8325;49.284;7.238;2023-08-17T21:04:03;98735.00;;;21.30;100.00
16431;BME280;8325;49.284;7.238;2023-08-17T21:08:15;98731.22;;;21.26;100.00
16431;BME280;8325;49.284;7.238;2023-08-17T21:12:27;98736.44;;;21.21;100.00
16431;BME280;8325;49.284;7.238;2023-08-17T21:16:40;98732.31;;;21.13;100.00
16431;BME280;8325;49.284;7.238;2023-08-17T21:20:52;98734.53;;;21.05;100.00
16431;BME280;8325;49.284;7.238;2023-08-17T21:25:04;98734.91;;;20.97;100.00
16431;BME280;8325;49.284;7.238;2023-08-17T21:29:15;98738.06;;;20.94;100.00
